sensor_id;sensor_type;location;lat;lon;timestamp;P1;durP1;ratioP1;P2;durP2;ratioP2
1024;SDS011;501;48.214;11.350;2023-06-22T00:00:29;6.50;;;5.13;;
1024;SDS011;501;48.214;11.350;2023-06-22T00:02:55;8.80;;;5.27;;
1024;SDS011;501;48.214;11.350;2023-06-22T00:05:20;9.23;;;6.57;;
1024;SDS011;501;48.214;11.350;2023-06-22T00:07:46;10.83;;;6.20;;
1024;SDS011;501;48.214;11.350;2023-06-22T00:10:11;7.17;;;5.07;;
1024;SDS011;501;48.214;11.350;2023-06-22T00:12:37;6.10;;;4.63;;
1024;SDS011;501;48.214;11.350;2023-06-22T00:15:03;6.40;;;5.00;;
1024;SDS011;501;48.214;11.350;2023-06-22T00:17:29;8.93;;;5.57;;
1024;SDS011;501;48.214;11.350;2023-06-22T00:19:54;6.30;;;4.80;;
1024;SDS011;501;48.214;11.350;2023-06-22T00:22:20;7.00;;;4.47;;
1024;SDS011;501;48.214;11.350;2023-06-22T00:24:53;5.40;;;4.30;;
1024;SDS011;501;48.214;11.350;2023-06-22T00:27:20;12.13;;;5.80;;
1024;SDS011;501;48.214;11.350;2023-06-22T00:29:45;9.40;;;5.47;;
1024;SDS011;501;48.214;11.350;2023-06-22T00:32:11;12.40;;;5.40;;
1024;SDS011;501;48.214;11.350;2023-06-22T00:34:36;8.70;;;5.60;;
1024;SDS011;501;48.214;11.350;2023-06-22T00:37:02;10.17;;;5.00;;
1024;SDS011;501;48.214;11.350;2023-06-22T00:39:28;7.13;;;5.40;;
1024;SDS011;501;48.214;11.350;2023-06-22T00:41:54;7.63;;;4.47;;
1024;SDS011;501;48.214;11.350;2023-06-22T00:44:20;5.80;;;4.10;;
1024;SDS011;501;48.214;11.350;2023-06-22T00:46:45;5.93;;;4.67;;
1024;SDS011;501;48.214;11.350;2023-06-22T00:49:11;9.00;;;5.37;;
1024;SDS011;501;48.214;11.350;2023-06-22T00:51:37;6.43;;;4.10;;
1024;SDS011;501;48.214;11.350;2023-06-22T00:54:04;5.93;;;4.70;;
1024;SDS011;501;48.214;11.350;2023-06-22T00:56:30;6.30;;;5.20;;
1024;SDS011;501;48.214;11.350;2023-06-22T00:58:57;9.63;;;4.87;;
1024;SDS011;501;48.214;11.350;2023-06-22T01:01:24;7.30;;;5.10;;
1024;SDS011;501;48.214;11.350;2023-06-22T01:03:50;9.43;;;4.50;;
1024;SDS011;501;48.214;11.350;2023-06-22T01:06:17;6.67;;;4.80;;
1024;SDS011;501;48.214;11.350;2023-06-22T01:08:53;5.70;;;4.07;;
1024;SDS011;501;48.214;11.350;2023-06-22T01:11:37;8.00;;;4.87;;
1024;SDS011;501;48.214;11.350;2023-06-22T01:14:20;6.47;;;4.60;;
1024;SDS011;501;48.214;11.350;2023-06-22T01:16:52;9.93;;;5.50;;
1024;SDS011;501;48.214;11.350;2023-06-22T01:21:52;8.90;;;5.30;;
1024;SDS011;501;48.214;11.350;2023-06-22T01:24:26;6.30;;;4.80;;
1024;SDS011;501;48.214;11.350;2023-06-22T01:27:04;6.50;;;5.50;;
1024;SDS011;501;48.214;11.350;2023-06-22T01:29:51;5.57;;;4.50;;
1024;SDS011;501;48.214;11.350;2023-06-22T01:32:32;6.07;;;4.70;;
1024;SDS011;501;48.214;11.350;2023-06-22T01:35:00;6.93;;;4.63;;
1024;SDS011;501;48.214;11.350;2023-06-22T01:37:29;5.77;;;4.53;;
1024;SDS011;501;48.214;11.350;2023-06-22T01:39:57;8.27;;;5.43;;
1024;SDS011;501;48.214;11.350;2023-06-22T01:42:24;7.70;;;4.60;;
1024;SDS011;501;48.214;11.350;2023-06-22T01:44:51;8.30;;;5.90;;
1024;SDS011;501;48.214;11.350;2023-06-22T01:47:18;8.97;;;5.00;;
1024;SDS011;501;48.214;11.350;2023-06-22T01:49:44;12.60;;;5.43;;
1024;SDS011;501;48.214;11.350;2023-06-22T01:52:11;8.47;;;4.50;;
1024;SDS011;501;48.214;11.350;2023-06-22T01:54:37;6.63;;;4.80;;
1024;SDS011;501;48.214;11.350;2023-06-22T01:57:05;7.90;;;5.27;;
1024;SDS011;501;48.214;11.350;2023-06-22T02:02:24;6.47;;;4.30;;
1024;SDS011;501;48.214;11.350;2023-06-22T02:04:56;5.77;;;4.33;;
1024;SDS011;501;48.214;11.350;2023-06-22T02:07:23;8.67;;;5.13;;
1024;SDS011;501;48.214;11.350;2023-06-22T02:09:57;6.87;;;4.63;;
1024;SDS011;501;48.214;11.350;2023-06-22T02:12:25;6.17;;;5.00;;
1024;SDS011;501;48.214;11.350;2023-06-22T02:14:53;10.47;;;5.97;;
1024;SDS011;501;48.214;11.350;2023-06-22T02:17:19;8.90;;;5.40;;
1024;SDS011;501;48.214;11.350;2023-06-22T02:19:45;13.40;;;5.97;;
1024;SDS011;501;48.214;11.350;2023-06-22T02:22:10;8.63;;;6.10;;
1024;SDS011;501;48.214;11.350;2023-06-22T02:24:37;7.93;;;5.40;;
1024;SDS011;501;48.214;11.350;2023-06-22T02:27:03;10.93;;;6.53;;
1024;SDS011;501;48.214;11.350;2023-06-22T02:29:30;6.50;;;5.70;;
1024;SDS011;501;48.214;11.350;2023-06-22T02:31:56;7.77;;;6.33;;
1024;SDS011;501;48.214;11.350;2023-06-22T02:34:22;9.13;;;5.70;;
1024;SDS011;501;48.214;11.350;2023-06-22T02:36:48;7.30;;;6.10;;
1024;SDS011;501;48.214;11.350;2023-06-22T02:39:18;8.83;;;6.13;;
1024;SDS011;501;48.214;11.350;2023-06-22T02:41:50;7.30;;;5.70;;
1024;SDS011;501;48.214;11.350;2023-06-22T02:44:17;11.93;;;6.30;;
1024;SDS011;501;48.214;11.350;2023-06-22T02:46:44;9.00;;;6.20;;
1024;SDS011;501;48.214;11.350;2023-06-22T02:49:10;9.77;;;5.73;;
1024;SDS011;501;48.214;11.350;2023-06-22T02:51:37;10.83;;;5.50;;
1024;SDS011;501;48.214;11.350;2023-06-22T02:54:04;8.57;;;6.63;;
1024;SDS011;501;48.214;11.350;2023-06-22T02:56:30;5.80;;;5.20;;
1024;SDS011;501;48.214;11.350;2023-06-22T02:58:56;7.63;;;6.30;;
1024;SDS011;501;48.214;11.350;2023-06-22T03:01:26;8.77;;;6.43;;
1024;SDS011;501;48.214;11.350;2023-06-22T03:04:04;7.77;;;6.10;;
1024;SDS011;501;48.214;11.350;2023-06-22T03:06:33;10.40;;;7.00;;
1024;SDS011;501;48.214;11.350;2023-06-22T03:09:00;10.57;;;6.27;;
1024;SDS011;501;48.214;11.350;2023-06-22T03:11:28;11.40;;;6.40;;
1024;SDS011;501;48.214;11.350;2023-06-22T03:13:53;7.30;;;6.10;;
1024;SDS011;501;48.214;11.350;2023-06-22T03:16:19;9.90;;;6.20;;
1024;SDS011;501;48.214;11.350;2023-06-22T03:18:45;9.87;;;6.60;;
1024;SDS011;501;48.214;11.350;2023-06-22T03:21:10;10.17;;;6.07;;
1024;SDS011;501;48.214;11.350;2023-06-22T03:23:36;9.37;;;6.67;;
1024;SDS011;501;48.214;11.350;2023-06-22T03:26:02;7.07;;;6.20;;
1024;SDS011;501;48.214;11.350;2023-06-22T03:28:29;13.93;;;6.40;;
1024;SDS011;501;48.214;11.350;2023-06-22T03:30:56;8.07;;;6.77;;
1024;SDS011;501;48.214;11.350;2023-06-22T03:33:22;6.87;;;6.10;;
1024;SDS011;501;48.214;11.350;2023-06-22T03:35:48;11.90;;;6.20;;
1024;SDS011;501;48.214;11.350;2023-06-22T03:38:15;7.93;;;6.33;;
1024;SDS011;501;48.214;11.350;2023-06-22T03:40:41;8.97;;;7.20;;
1024;SDS011;501;48.214;11.350;2023-06-22T03:43:06;8.73;;;5.77;;
1024;SDS011;501;48.214;11.350;2023-06-22T03:45:32;7.50;;;6.80;;
1024;SDS011;501;48.214;11.350;2023-06-22T03:47:58;7.17;;;6.43;;
1024;SDS011;501;48.214;11.350;2023-06-22T03:50:23;12.57;;;6.50;;
1024;SDS011;501;48.214;11.350;2023-06-22T03:52:49;8.00;;;6.43;;
1024;SDS011;501;48.214;11.350;2023-06-22T03:55:16;9.13;;;6.40;;
1024;SDS011;501;48.214;11.350;2023-06-22T03:57:42;10.03;;;6.37;;
1024;SDS011;501;48.214;11.350;2023-06-22T04:00:07;11.07;;;6.40;;
1024;SDS011;501;48.214;11.350;2023-06-22T04:02:34;9.73;;;6.73;;
1024;SDS011;501;48.214;11.350;2023-06-22T04:05:00;12.40;;;7.13;;
1024;SDS011;501;48.214;11.350;2023-06-22T04:07:26;7.57;;;6.87;;
1024;SDS011;501;48.214;11.350;2023-06-22T04:09:51;8.03;;;6.97;;
1024;SDS011;501;48.214;11.350;2023-06-22T04:12:17;10.13;;;6.60;;
1024;SDS011;501;48.214;11.350;2023-06-22T04:14:42;9.93;;;6.70;;
1024;SDS011;501;48.214;11.350;2023-06-22T04:17:08;11.17;;;6.73;;
1024;SDS011;501;48.214;11.350;2023-06-22T04:19:34;8.87;;;6.23;;
1024;SDS011;501;48.214;11.350;2023-06-22T04:21:59;12.40;;;7.80;;
1024;SDS011;501;48.214;11.350;2023-06-22T04:24:25;10.37;;;6.40;;
1024;SDS011;501;48.214;11.350;2023-06-22T04:26:51;11.50;;;5.93;;
1024;SDS011;501;48.214;11.350;2023-06-22T04:29:19;10.27;;;6.57;;
1024;SDS011;501;48.214;11.350;2023-06-22T04:31:46;8.47;;;6.50;;
1024;SDS011;501;48.214;11.350;2023-06-22T04:34:15;8.40;;;6.53;;
1024;SDS011;501;48.214;11.350;2023-06-22T04:36:41;11.77;;;6.63;;
1024;SDS011;501;48.214;11.350;2023-06-22T04:39:07;9.63;;;7.10;;
1024;SDS011;501;48.214;11.350;2023-06-22T04:41:36;10.77;;;6.57;;
1024;SDS011;501;48.214;11.350;2023-06-22T04:44:12;9.13;;;6.63;;
1024;SDS011;501;48.214;11.350;2023-06-22T04:46:49;10.93;;;6.20;;
1024;SDS011;501;48.214;11.350;2023-06-22T04:49:19;8.70;;;6.17;;
1024;SDS011;501;48.214;11.350;2023-06-22T04:51:45;10.07;;;6.97;;
1024;SDS011;501;48.214;11.350;2023-06-22T04:54:11;13.03;;;6.87;;
1024;SDS011;501;48.214;11.350;2023-06-22T04:56:37;10.47;;;7.17;;
1024;SDS011;501;48.214;11.350;2023-06-22T04:59:06;6.47;;;5.13;;
1024;SDS011;501;48.214;11.350;2023-06-22T05:01:32;8.00;;;6.93;;
1024;SDS011;501;48.214;11.350;2023-06-22T05:03:59;14.43;;;7.00;;
1024;SDS011;501;48.214;11.350;2023-06-22T05:06:26;10.40;;;6.97;;
1024;SDS011;501;48.214;11.350;2023-06-22T05:08:56;10.00;;;7.17;;
1024;SDS011;501;48.214;11.350;2023-06-22T05:11:25;8.83;;;6.87;;
1024;SDS011;501;48.214;11.350;2023-06-22T05:13:52;9.20;;;5.80;;
1024;SDS011;501;48.214;11.350;2023-06-22T05:16:18;12.30;;;7.37;;
1024;SDS011;501;48.214;11.350;2023-06-22T05:18:48;9.40;;;6.83;;
1024;SDS011;501;48.214;11.350;2023-06-22T05:21:15;9.80;;;7.47;;
1024;SDS011;501;48.214;11.350;2023-06-22T05:23:41;9.13;;;6.87;;
1024;SDS011;501;48.214;11.350;2023-06-22T05:26:06;9.60;;;6.47;;
1024;SDS011;501;48.214;11.350;2023-06-22T05:28:34;11.27;;;6.43;;
1024;SDS011;501;48.214;11.350;2023-06-22T05:31:00;10.50;;;6.77;;
1024;SDS011;501;48.214;11.350;2023-06-22T05:33:25;10.30;;;6.20;;
1024;SDS011;501;48.214;11.350;2023-06-22T05:35:51;8.73;;;6.23;;
1024;SDS011;501;48.214;11.350;2023-06-22T05:38:17;9.87;;;6.60;;
1024;SDS011;501;48.214;11.350;2023-06-22T05:40:42;8.80;;;6.70;;
1024;SDS011;501;48.214;11.350;2023-06-22T05:43:08;11.03;;;6.30;;
1024;SDS011;501;48.214;11.350;2023-06-22T05:45:33;14.70;;;7.00;;
1024;SDS011;501;48.214;11.350;2023-06-22T05:47:59;12.17;;;6.80;;
1024;SDS011;501;48.214;11.350;2023-06-22T05:50:25;11.80;;;7.10;;
1024;SDS011;501;48.214;11.350;2023-06-22T05:52:50;9.37;;;6.73;;
1024;SDS011;501;48.214;11.350;2023-06-22T05:55:16;10.17;;;6.53;;
1024;SDS011;501;48.214;11.350;2023-06-22T05:57:43;12.40;;;7.60;;
1024;SDS011;501;48.214;11.350;2023-06-22T06:00:09;8.13;;;6.60;;
1024;SDS011;501;48.214;11.350;2023-06-22T06:02:35;11.90;;;7.47;;
1024;SDS011;501;48.214;11.350;2023-06-22T06:05:01;12.00;;;7.37;;
1024;SDS011;501;48.214;11.350;2023-06-22T06:07:28;8.47;;;6.77;;
1024;SDS011;501;48.214;11.350;2023-06-22T06:09:54;10.17;;;7.07;;
1024;SDS011;501;48.214;11.350;2023-06-22T06:12:20;12.33;;;6.87;;
1024;SDS011;501;48.214;11.350;2023-06-22T06:14:46;8.63;;;6.80;;
1024;SDS011;501;48.214;11.350;2023-06-22T06:17:12;14.17;;;7.00;;
1024;SDS011;501;48.214;11.350;2023-06-22T06:19:38;12.33;;;7.30;;
1024;SDS011;501;48.214;11.350;2023-06-22T06:22:04;11.60;;;8.13;;
1024;SDS011;501;48.214;11.350;2023-06-22T06:24:29;11.17;;;7.97;;
1024;SDS011;501;48.214;11.350;2023-06-22T06:26:55;10.67;;;7.00;;
1024;SDS011;501;48.214;11.350;2023-06-22T06:29:20;14.57;;;7.97;;
1024;SDS011;501;48.214;11.350;2023-06-22T06:31:48;9.87;;;7.70;;
1024;SDS011;501;48.214;11.350;2023-06-22T06:34:13;9.60;;;7.40;;
1024;SDS011;501;48.214;11.350;2023-06-22T06:36:39;10.50;;;6.50;;
1024;SDS011;501;48.214;11.350;2023-06-22T06:39:05;9.67;;;6.57;;
1024;SDS011;501;48.214;11.350;2023-06-22T06:41:30;10.73;;;6.73;;
1024;SDS011;501;48.214;11.350;2023-06-22T06:43:56;11.90;;;7.67;;
1024;SDS011;501;48.214;11.350;2023-06-22T06:46:21;12.67;;;7.20;;
1024;SDS011;501;48.214;11.350;2023-06-22T06:48:47;12.97;;;7.40;;
1024;SDS011;501;48.214;11.350;2023-06-22T06:51:13;13.90;;;7.50;;
1024;SDS011;501;48.214;11.350;2023-06-22T06:53:39;8.80;;;6.60;;
1024;SDS011;501;48.214;11.350;2023-06-22T06:56:04;11.70;;;7.13;;
1024;SDS011;501;48.214;11.350;2023-06-22T06:58:30;11.50;;;6.87;;
1024;SDS011;501;48.214;11.350;2023-06-22T07:00:56;15.77;;;6.77;;
1024;SDS011;501;48.214;11.350;2023-06-22T07:03:22;9.47;;;6.63;;
1024;SDS011;501;48.214;11.350;2023-06-22T07:05:47;11.50;;;6.60;;
1024;SDS011;501;48.214;11.350;2023-06-22T07:08:13;12.77;;;7.40;;
1024;SDS011;501;48.214;11.350;2023-06-22T07:10:39;10.50;;;5.93;;
1024;SDS011;501;48.214;11.350;2023-06-22T07:13:04;13.27;;;7.20;;
1024;SDS011;501;48.214;11.350;2023-06-22T07:15:30;10.90;;;7.13;;
1024;SDS011;501;48.214;11.350;2023-06-22T07:17:55;10.30;;;7.00;;
1024;SDS011;501;48.214;11.350;2023-06-22T07:20:21;9.10;;;7.47;;
1024;SDS011;501;48.214;11.350;2023-06-22T07:22:46;9.47;;;7.00;;
1024;SDS011;501;48.214;11.350;2023-06-22T07:25:12;10.93;;;7.57;;
1024;SDS011;501;48.214;11.350;2023-06-22T07:30:37;11.30;;;6.53;;
1024;SDS011;501;48.214;11.350;2023-06-22T07:33:02;13.20;;;7.93;;
1024;SDS011;501;48.214;11.350;2023-06-22T07:35:29;11.90;;;7.13;;
1024;SDS011;501;48.214;11.350;2023-06-22T07:37:56;9.10;;;7.23;;
1024;SDS011;501;48.214;11.350;2023-06-22T07:40:21;12.00;;;8.00;;
1024;SDS011;501;48.214;11.350;2023-06-22T07:42:47;13.83;;;7.10;;
1024;SDS011;501;48.214;11.350;2023-06-22T07:45:16;11.10;;;7.93;;
1024;SDS011;501;48.214;11.350;2023-06-22T07:47:42;11.93;;;7.20;;
1024;SDS011;501;48.214;11.350;2023-06-22T07:50:08;12.87;;;8.17;;
1024;SDS011;501;48.214;11.350;2023-06-22T07:52:34;12.47;;;6.70;;
1024;SDS011;501;48.214;11.350;2023-06-22T07:55:00;12.17;;;6.77;;
1024;SDS011;501;48.214;11.350;2023-06-22T07:57:27;9.50;;;7.57;;
1024;SDS011;501;48.214;11.350;2023-06-22T07:59:57;14.50;;;8.33;;
1024;SDS011;501;48.214;11.350;2023-06-22T08:02:23;18.57;;;7.83;;
1024;SDS011;501;48.214;11.350;2023-06-22T08:04:49;11.13;;;7.20;;
1024;SDS011;501;48.214;11.350;2023-06-22T08:07:15;13.43;;;7.87;;
1024;SDS011;501;48.214;11.350;2023-06-22T08:09:45;14.47;;;8.00;;
1024;SDS011;501;48.214;11.350;2023-06-22T08:12:12;11.30;;;6.17;;
1024;SDS011;501;48.214;11.350;2023-06-22T08:14:38;11.47;;;7.17;;
1024;SDS011;501;48.214;11.350;2023-06-22T08:17:04;12.00;;;7.57;;
1024;SDS011;501;48.214;11.350;2023-06-22T08:19:30;12.20;;;8.10;;
1024;SDS011;501;48.214;11.350;2023-06-22T08:21:55;10.83;;;7.33;;
1024;SDS011;501;48.214;11.350;2023-06-22T08:24:22;13.20;;;8.30;;
1024;SDS011;501;48.214;11.350;2023-06-22T08:26:49;10.10;;;7.90;;
1024;SDS011;501;48.214;11.350;2023-06-22T08:29:16;12.50;;;7.87;;
1024;SDS011;501;48.214;11.350;2023-06-22T08:31:42;13.97;;;7.47;;
1024;SDS011;501;48.214;11.350;2023-06-22T08:34:08;12.17;;;8.00;;
1024;SDS011;501;48.214;11.350;2023-06-22T08:36:33;15.77;;;7.97;;
1024;SDS011;501;48.214;11.350;2023-06-22T08:39:02;13.50;;;6.90;;
1024;SDS011;501;48.214;11.350;2023-06-22T08:41:28;10.73;;;6.80;;
1024;SDS011;501;48.214;11.350;2023-06-22T08:43:54;11.60;;;7.10;;
1024;SDS011;501;48.214;11.350;2023-06-22T08:46:20;11.87;;;6.93;;
1024;SDS011;501;48.214;11.350;2023-06-22T08:48:49;11.50;;;7.30;;
1024;SDS011;501;48.214;11.350;2023-06-22T08:51:15;13.93;;;7.83;;
1024;SDS011;501;48.214;11.350;2023-06-22T08:53:42;15.10;;;6.97;;
1024;SDS011;501;48.214;11.350;2023-06-22T08:56:08;13.10;;;8.10;;
1024;SDS011;501;48.214;11.350;2023-06-22T08:58:33;10.03;;;7.00;;
1024;SDS011;501;48.214;11.350;2023-06-22T09:00:59;9.43;;;7.37;;
1024;SDS011;501;48.214;11.350;2023-06-22T09:03:26;16.50;;;7.50;;
1024;SDS011;501;48.214;11.350;2023-06-22T09:05:52;8.83;;;7.40;;
1024;SDS011;501;48.214;11.350;2023-06-22T09:08:17;12.90;;;7.43;;
1024;SDS011;501;48.214;11.350;2023-06-22T09:10:43;12.17;;;7.80;;
1024;SDS011;501;48.214;11.350;2023-06-22T09:13:09;10.60;;;7.20;;
1024;SDS011;501;48.214;11.350;2023-06-22T09:15:34;15.63;;;7.93;;
1024;SDS011;501;48.214;11.350;2023-06-22T09:18:00;10.80;;;7.67;;
1024;SDS011;501;48.214;11.350;2023-06-22T09:20:26;11.87;;;7.30;;
1024;SDS011;501;48.214;11.350;2023-06-22T09:22:51;13.07;;;8.37;;
1024;SDS011;501;48.214;11.350;2023-06-22T09:25:17;13.20;;;6.63;;
1024;SDS011;501;48.214;11.350;2023-06-22T09:27:45;14.60;;;8.80;;
1024;SDS011;501;48.214;11.350;2023-06-22T09:30:11;12.53;;;7.50;;
1024;SDS011;501;48.214;11.350;2023-06-22T09:32:37;15.73;;;7.47;;
1024;SDS011;501;48.214;11.350;2023-06-22T09:35:04;16.93;;;7.20;;
1024;SDS011;501;48.214;11.350;2023-06-22T09:37:34;12.80;;;7.50;;
1024;SDS011;501;48.214;11.350;2023-06-22T09:40:00;13.50;;;7.40;;
1024;SDS011;501;48.214;11.350;2023-06-22T09:42:29;11.07;;;6.53;;
1024;SDS011;501;48.214;11.350;2023-06-22T09:44:55;12.93;;;7.50;;
1024;SDS011;501;48.214;11.350;2023-06-22T09:47:20;15.43;;;8.67;;
1024;SDS011;501;48.214;11.350;2023-06-22T09:49:46;13.27;;;7.10;;
1024;SDS011;501;48.214;11.350;2023-06-22T09:52:11;14.37;;;7.90;;
1024;SDS011;501;48.214;11.350;2023-06-22T09:54:37;18.97;;;7.57;;
1024;SDS011;501;48.214;11.350;2023-06-22T09:57:03;13.27;;;7.20;;
1024;SDS011;501;48.214;11.350;2023-06-22T09:59:29;15.03;;;7.30;;
1024;SDS011;501;48.214;11.350;2023-06-22T10:01:54;11.23;;;7.00;;
1024;SDS011;501;48.214;11.350;2023-06-22T10:04:20;9.40;;;6.93;;
1024;SDS011;501;48.214;11.350;2023-06-22T10:06:45;12.10;;;7.50;;
1024;SDS011;501;48.214;11.350;2023-06-22T10:09:11;17.63;;;7.80;;
1024;SDS011;501;48.214;11.350;2023-06-22T10:11:37;12.87;;;6.93;;
1024;SDS011;501;48.214;11.350;2023-06-22T10:14:02;13.20;;;7.80;;
1024;SDS011;501;48.214;11.350;2023-06-22T10:16:32;10.20;;;7.23;;
1024;SDS011;501;48.214;11.350;2023-06-22T10:18:58;8.67;;;6.60;;
1024;SDS011;501;48.214;11.350;2023-06-22T10:21:24;17.63;;;7.20;;
1024;SDS011;501;48.214;11.350;2023-06-22T10:23:52;10.50;;;6.80;;
1024;SDS011;501;48.214;11.350;2023-06-22T10:26:17;12.33;;;6.50;;
1024;SDS011;501;48.214;11.350;2023-06-22T10:28:43;16.20;;;7.43;;
1024;SDS011;501;48.214;11.350;2023-06-22T10:31:08;15.77;;;7.80;;
1024;SDS011;501;48.214;11.350;2023-06-22T10:33:34;15.67;;;7.93;;
1024;SDS011;501;48.214;11.350;2023-06-22T10:36:00;17.77;;;7.67;;
1024;SDS011;501;48.214;11.350;2023-06-22T10:38:25;13.57;;;7.13;;
1024;SDS011;501;48.214;11.350;2023-06-22T10:40:51;10.87;;;7.47;;
1024;SDS011;501;48.214;11.350;2023-06-22T10:43:16;11.77;;;7.50;;
1024;SDS011;501;48.214;11.350;2023-06-22T10:45:42;13.70;;;6.80;;
1024;SDS011;501;48.214;11.350;2023-06-22T10:48:08;11.00;;;6.60;;
1024;SDS011;501;48.214;11.350;2023-06-22T10:50:33;12.23;;;6.83;;
1024;SDS011;501;48.214;11.350;2023-06-22T10:52:59;17.30;;;7.70;;
1024;SDS011;501;48.214;11.350;2023-06-22T10:55:25;14.57;;;7.13;;
1024;SDS011;501;48.214;11.350;2023-06-22T10:57:50;8.83;;;6.43;;
1024;SDS011;501;48.214;11.350;2023-06-22T11:00:17;16.83;;;7.27;;
1024;SDS011;501;48.214;11.350;2023-06-22T11:02:43;15.43;;;6.20;;
1024;SDS011;501;48.214;11.350;2023-06-22T11:05:09;15.23;;;7.03;;
1024;SDS011;501;48.214;11.350;2023-06-22T11:07:34;11.57;;;6.80;;
1024;SDS011;501;48.214;11.350;2023-06-22T11:10:00;12.60;;;6.70;;
1024;SDS011;501;48.214;11.350;2023-06-22T11:12:26;12.03;;;7.00;;
1024;SDS011;501;48.214;11.350;2023-06-22T11:14:51;12.60;;;6.90;;
1024;SDS011;501;48.214;11.350;2023-06-22T11:17:17;16.97;;;8.00;;
1024;SDS011;501;48.214;11.350;2023-06-22T11:19:44;13.77;;;7.83;;
1024;SDS011;501;48.214;11.350;2023-06-22T11:22:10;11.50;;;7.50;;
1024;SDS011;501;48.214;11.350;2023-06-22T11:24:35;13.27;;;6.77;;
1024;SDS011;501;48.214;11.350;2023-06-22T11:27:01;16.17;;;7.80;;
1024;SDS011;501;48.214;11.350;2023-06-22T11:29:27;16.10;;;6.90;;
1024;SDS011;501;48.214;11.350;2023-06-22T11:31:52;14.77;;;6.83;;
1024;SDS011;501;48.214;11.350;2023-06-22T11:34:18;12.60;;;6.53;;
1024;SDS011;501;48.214;11.350;2023-06-22T11:36:44;17.10;;;7.70;;
1024;SDS011;501;48.214;11.350;2023-06-22T11:39:10;10.73;;;6.53;;
1024;SDS011;501;48.214;11.350;2023-06-22T11:41:36;13.00;;;6.83;;
1024;SDS011;501;48.214;11.350;2023-06-22T11:44:03;10.33;;;6.97;;
1024;SDS011;501;48.214;11.350;2023-06-22T11:46:29;15.50;;;7.70;;
1024;SDS011;501;48.214;11.350;2023-06-22T11:48:56;10.00;;;5.97;;
1024;SDS011;501;48.214;11.350;2023-06-22T11:51:22;15.50;;;6.30;;
1024;SDS011;501;48.214;11.350;2023-06-22T11:53:48;15.80;;;7.07;;
1024;SDS011;501;48.214;11.350;2023-06-22T11:56:13;9.57;;;6.07;;
1024;SDS011;501;48.214;11.350;2023-06-22T12:01:27;14.53;;;6.40;;
1024;SDS011;501;48.214;11.350;2023-06-22T12:03:52;13.07;;;7.40;;
1024;SDS011;501;48.214;11.350;2023-06-22T12:06:18;15.63;;;7.00;;
1024;SDS011;501;48.214;11.350;2023-06-22T12:08:43;15.77;;;7.17;;
1024;SDS011;501;48.214;11.350;2023-06-22T12:11:09;17.30;;;6.67;;
1024;SDS011;501;48.214;11.350;2023-06-22T12:13:35;14.10;;;6.80;;
1024;SDS011;501;48.214;11.350;2023-06-22T12:16:01;7.97;;;6.50;;
1024;SDS011;501;48.214;11.350;2023-06-22T12:18:26;12.83;;;7.30;;
1024;SDS011;501;48.214;11.350;2023-06-22T12:20:52;14.30;;;7.80;;
1024;SDS011;501;48.214;11.350;2023-06-22T12:23:17;13.53;;;7.00;;
1024;SDS011;501;48.214;11.350;2023-06-22T12:25:44;15.00;;;6.67;;
1024;SDS011;501;48.214;11.350;2023-06-22T12:28:10;12.70;;;6.97;;
1024;SDS011;501;48.214;11.350;2023-06-22T12:30:36;11.50;;;6.30;;
1024;SDS011;501;48.214;11.350;2023-06-22T12:33:02;12.57;;;8.20;;
1024;SDS011;501;48.214;11.350;2023-06-22T12:35:28;8.57;;;6.00;;
1024;SDS011;501;48.214;11.350;2023-06-22T12:37:53;9.37;;;6.43;;
1024;SDS011;501;48.214;11.350;2023-06-22T12:40:19;9.63;;;6.53;;
1024;SDS011;501;48.214;11.350;2023-06-22T12:42:45;11.93;;;6.27;;
1024;SDS011;501;48.214;11.350;2023-06-22T12:45:11;11.80;;;6.30;;
1024;SDS011;501;48.214;11.350;2023-06-22T12:47:36;10.37;;;7.00;;
1024;SDS011;501;48.214;11.350;2023-06-22T12:50:02;11.67;;;6.30;;
1024;SDS011;501;48.214;11.350;2023-06-22T12:52:29;11.00;;;6.47;;
1024;SDS011;501;48.214;11.350;2023-06-22T12:54:57;10.50;;;6.63;;
1024;SDS011;501;48.214;11.350;2023-06-22T12:57:23;11.87;;;6.23;;
1024;SDS011;501;48.214;11.350;2023-06-22T12:59:48;10.70;;;6.73;;
1024;SDS011;501;48.214;11.350;2023-06-22T13:02:14;10.63;;;5.87;;
1024;SDS011;501;48.214;11.350;2023-06-22T13:04:40;15.97;;;7.03;;
1024;SDS011;501;48.214;11.350;2023-06-22T13:07:05;12.13;;;6.03;;
1024;SDS011;501;48.214;11.350;2023-06-22T13:09:31;13.10;;;6.70;;
1024;SDS011;501;48.214;11.350;2023-06-22T13:11:57;9.23;;;6.70;;
1024;SDS011;501;48.214;11.350;2023-06-22T13:14:24;9.30;;;5.80;;
1024;SDS011;501;48.214;11.350;2023-06-22T13:16:50;14.63;;;6.53;;
1024;SDS011;501;48.214;11.350;2023-06-22T13:19:15;11.63;;;6.90;;
1024;SDS011;501;48.214;11.350;2023-06-22T13:21:41;10.80;;;6.93;;
1024;SDS011;501;48.214;11.350;2023-06-22T13:24:07;10.67;;;6.10;;
1024;SDS011;501;48.214;11.350;2023-06-22T13:26:32;10.87;;;6.60;;
1024;SDS011;501;48.214;11.350;2023-06-22T13:28:58;9.80;;;5.93;;
1024;SDS011;501;48.214;11.350;2023-06-22T13:31:24;10.90;;;6.47;;
1024;SDS011;501;48.214;11.350;2023-06-22T13:33:49;12.23;;;6.07;;
1024;SDS011;501;48.214;11.350;2023-06-22T13:36:17;10.73;;;6.23;;
1024;SDS011;501;48.214;11.350;2023-06-22T13:38:43;12.63;;;5.97;;
1024;SDS011;501;48.214;11.350;2023-06-22T13:41:12;12.70;;;6.07;;
1024;SDS011;501;48.214;11.350;2023-06-22T13:43:37;9.47;;;6.10;;
1024;SDS011;501;48.214;11.350;2023-06-22T13:46:03;15.33;;;6.70;;
1024;SDS011;501;48.214;11.350;2023-06-22T13:48:29;12.33;;;5.70;;
1024;SDS011;501;48.214;11.350;2023-06-22T13:50:54;11.33;;;6.37;;
1024;SDS011;501;48.214;11.350;2023-06-22T13:53:20;14.30;;;5.80;;
1024;SDS011;501;48.214;11.350;2023-06-22T13:55:46;13.67;;;6.27;;
1024;SDS011;501;48.214;11.350;2023-06-22T13:58:12;13.47;;;6.57;;
1024;SDS011;501;48.214;11.350;2023-06-22T14:00:38;14.27;;;6.93;;
1024;SDS011;501;48.214;11.350;2023-06-22T14:03:04;12.73;;;6.47;;
1024;SDS011;501;48.214;11.350;2023-06-22T14:05:29;12.40;;;6.23;;
1024;SDS011;501;48.214;11.350;2023-06-22T14:07:55;9.90;;;5.47;;
1024;SDS011;501;48.214;11.350;2023-06-22T14:10:21;13.23;;;5.80;;
1024;SDS011;501;48.214;11.350;2023-06-22T14:12:46;9.87;;;5.60;;
1024;SDS011;501;48.214;11.350;2023-06-22T14:15:12;10.80;;;6.70;;
1024;SDS011;501;48.214;11.350;2023-06-22T14:17:38;9.17;;;5.90;;
1024;SDS011;501;48.214;11.350;2023-06-22T14:20:04;18.47;;;7.20;;
1024;SDS011;501;48.214;11.350;2023-06-22T14:22:32;12.63;;;6.10;;
1024;SDS011;501;48.214;11.350;2023-06-22T14:25:00;11.23;;;6.47;;
1024;SDS011;501;48.214;11.350;2023-06-22T14:27:26;9.33;;;6.23;;
1024;SDS011;501;48.214;11.350;2023-06-22T14:29:52;11.70;;;5.93;;
1024;SDS011;501;48.214;11.350;2023-06-22T14:32:18;13.27;;;6.03;;
1024;SDS011;501;48.214;11.350;2023-06-22T14:34:43;17.40;;;5.90;;
1024;SDS011;501;48.214;11.350;2023-06-22T14:37:10;14.90;;;5.60;;
1024;SDS011;501;48.214;11.350;2023-06-22T14:39:37;12.93;;;6.87;;
1024;SDS011;501;48.214;11.350;2023-06-22T14:42:04;10.73;;;6.60;;
1024;SDS011;501;48.214;11.350;2023-06-22T14:44:30;10.03;;;4.97;;
1024;SDS011;501;48.214;11.350;2023-06-22T14:46:56;14.90;;;7.00;;
1024;SDS011;501;48.214;11.350;2023-06-22T14:49:22;15.67;;;6.30;;
1024;SDS011;501;48.214;11.350;2023-06-22T14:51:48;12.30;;;6.33;;
1024;SDS011;501;48.214;11.350;2023-06-22T14:54:13;14.93;;;6.50;;
1024;SDS011;501;48.214;11.350;2023-06-22T14:56:39;15.17;;;6.00;;
1024;SDS011;501;48.214;11.350;2023-06-22T14:59:05;14.07;;;6.57;;
1024;SDS011;501;48.214;11.350;2023-06-22T15:01:31;12.50;;;6.80;;
1024;SDS011;501;48.214;11.350;2023-06-22T15:03:56;14.40;;;6.60;;
1024;SDS011;501;48.214;11.350;2023-06-22T15:06:22;11.60;;;6.20;;
1024;SDS011;501;48.214;11.350;2023-06-22T15:08:48;13.40;;;6.17;;
1024;SDS011;501;48.214;11.350;2023-06-22T15:11:13;11.90;;;5.73;;